createdAt,value
2023-01-17T00:02:04.319Z,48.42
2023-01-17T00:05:25.882Z,50.20
2023-01-17T00:08:46.804Z,50.90
2023-01-17T00:11:49.568Z,53.90
2023-01-17T00:14:54.586Z,51.97
2023-01-17T00:17:58.022Z,54.72
2023-01-17T00:21:35.893Z,50.00
2023-01-17T00:24:57.416Z,55.58
2023-01-17T00:28:00.158Z,58.33
2023-01-17T00:31:04.060Z,56.65
2023-01-17T00:34:06.364Z,53.15
2023-01-17T00:37:08.893Z,48.27
2023-01-17T00:40:11.537Z,48.55
2023-01-17T00:43:36.788Z,50.70
2023-01-17T00:46:57.648Z,45.28
2023-01-17T00:50:18.847Z,42.42
2023-01-17T00:53:39.839Z,42.43
2023-01-17T00:57:01.200Z,45.00
2023-01-17T01:00:23.651Z,46.08
2023-01-17T01:03:44.806Z,47.03
2023-01-17T01:07:05.872Z,45.10
2023-01-17T01:10:27.870Z,41.43
2023-01-17T01:13:50.849Z,44.47
2023-01-17T01:17:11.750Z,45.70
2023-01-17T01:20:32.526Z,39.85
2023-01-17T01:23:54.262Z,46.47
2023-01-17T01:27:15.106Z,46.57
2023-01-17T01:30:36.396Z,46.63
2023-01-17T01:33:39.034Z,40.08
2023-01-17T01:36:41.655Z,41.10
2023-01-17T01:39:44.080Z,38.30
2023-01-17T01:42:57.439Z,36.90
2023-01-17T01:45:59.814Z,42.15
2023-01-17T01:49:29.672Z,40.10
2023-01-17T01:52:34.751Z,35.33
2023-01-17T01:55:40.881Z,33.17
2023-01-17T01:58:49.396Z,35.53
2023-01-17T02:01:55.364Z,39.28
2023-01-17T02:04:59.777Z,37.03
2023-01-17T02:08:08.326Z,42.78
2023-01-17T02:11:11.666Z,39.05
2023-01-17T02:14:18.492Z,34.60
2023-01-17T02:17:29.991Z,36.10
2023-01-17T02:20:57.220Z,38.38
2023-01-17T02:24:15.197Z,40.95
2023-01-17T02:27:55.838Z,40.72
2023-01-17T02:31:08.994Z,40.20
2023-01-17T02:34:25.246Z,45.00
2023-01-17T02:37:49.177Z,44.50
2023-01-17T02:41:07.889Z,40.90
2023-01-17T02:44:15.379Z,40.28
2023-01-17T02:47:28.041Z,40.60
2023-01-17T02:51:03.074Z,42.55
2023-01-17T02:54:28.356Z,41.55
2023-01-17T02:57:37.114Z,43.08
2023-01-17T03:00:57.950Z,41.53
2023-01-17T03:04:50.182Z,43.47
2023-01-17T03:07:53.808Z,42.03
2023-01-17T03:10:57.426Z,36.38
2023-01-17T03:13:59.900Z,33.85
2023-01-17T03:17:02.656Z,37.83
2023-01-17T03:20:05.476Z,40.53
2023-01-17T03:23:08.148Z,33.30
2023-01-17T03:26:10.517Z,37.50
2023-01-17T03:29:13.860Z,33.28
2023-01-17T03:32:16.139Z,34.88
2023-01-17T03:35:18.858Z,34.03
2023-01-17T03:38:21.209Z,32.60
2023-01-17T03:41:23.899Z,34.80
2023-01-17T03:44:26.300Z,33.72
2023-01-17T03:47:28.959Z,32.60
2023-01-17T03:50:31.470Z,30.13
2023-01-17T03:53:34.138Z,32.33
2023-01-17T03:56:36.486Z,32.13
2023-01-17T03:59:39.138Z,29.12
2023-01-17T04:02:41.616Z,29.05
2023-01-17T04:05:44.268Z,29.03
2023-01-17T04:08:46.629Z,23.95
2023-01-17T04:11:50.959Z,27.45
2023-01-17T04:14:53.469Z,30.30
2023-01-17T04:17:56.601Z,25.77
2023-01-17T04:20:58.913Z,27.07
2023-01-17T04:24:01.542Z,22.42
2023-01-17T04:27:07.068Z,26.15
2023-01-17T04:30:10.485Z,24.55
2023-01-17T04:33:12.863Z,25.08
2023-01-17T04:36:15.513Z,24.23
2023-01-17T04:39:17.935Z,23.67
2023-01-17T04:42:20.578Z,26.25
2023-01-17T04:45:23.176Z,25.17
2023-01-17T04:48:27.263Z,21.85
2023-01-17T04:51:29.654Z,22.27
2023-01-17T04:54:32.324Z,20.83
2023-01-17T04:57:34.870Z,19.17
2023-01-17T05:00:37.490Z,17.92
2023-01-17T05:03:39.925Z,17.10
2023-01-17T05:06:43.257Z,17.40
2023-01-17T05:09:45.654Z,17.52
2023-01-17T05:12:59.176Z,15.35
2023-01-17T05:16:01.519Z,15.75
2023-01-17T05:19:04.320Z,16.37
2023-01-17T05:22:14.877Z,11.77
2023-01-17T05:25:17.667Z,14.73
2023-01-17T05:28:20.014Z,15.32
2023-01-17T05:31:22.754Z,14.00
2023-01-17T05:34:25.246Z,12.43
2023-01-17T05:37:27.844Z,15.63
2023-01-17T05:40:32.954Z,13.52
2023-01-17T05:43:35.585Z,16.12
2023-01-17T05:46:37.999Z,11.90
2023-01-17T05:49:40.675Z,14.02
2023-01-17T05:52:49.777Z,12.03
2023-01-17T05:55:52.773Z,13.85
2023-01-17T05:58:55.222Z,11.27
2023-01-17T06:01:58.205Z,11.02
2023-01-17T06:05:03.271Z,15.60
2023-01-17T06:08:06.050Z,9.50
2023-01-17T06:11:08.819Z,11.27
2023-01-17T06:14:11.222Z,9.82
2023-01-17T06:17:13.835Z,11.27
2023-01-17T06:20:16.254Z,8.18
2023-01-17T06:23:19.052Z,8.27
2023-01-17T06:26:21.418Z,8.10
2023-01-17T06:29:24.133Z,9.68
2023-01-17T06:32:26.471Z,8.40
2023-01-17T06:35:29.583Z,11.60
2023-01-17T06:38:34.833Z,7.97
2023-01-17T06:41:37.701Z,11.63
2023-01-17T06:44:40.034Z,8.65
2023-01-17T06:47:42.953Z,9.93
2023-01-17T06:50:46.733Z,9.85
2023-01-17T06:53:49.450Z,8.93
2023-01-17T06:56:51.892Z,8.98
2023-01-17T06:59:54.522Z,8.98
2023-01-17T07:02:56.851Z,8.85
2023-01-17T07:06:02.203Z,9.15
2023-01-17T07:09:04.797Z,8.97
2023-01-17T07:12:07.729Z,14.82
2023-01-17T07:15:11.194Z,8.57
2023-01-17T07:18:14.739Z,9.48
2023-01-17T07:21:17.277Z,9.75
2023-01-17T07:24:21.479Z,9.90
2023-01-17T07:27:24.819Z,10.45
2023-01-17T07:30:27.818Z,9.70
2023-01-17T07:33:30.166Z,10.23
2023-01-17T07:36:33.434Z,9.63
2023-01-17T07:39:37.328Z,8.87
2023-01-17T07:42:40.012Z,9.32
2023-01-17T07:45:50.736Z,5.53
2023-01-17T07:48:53.422Z,5.65
2023-01-17T07:51:55.812Z,8.00
2023-01-17T07:54:58.613Z,5.17
2023-01-17T07:58:02.947Z,5.25
2023-01-17T08:01:09.152Z,6.90
2023-01-17T08:04:11.952Z,5.82
2023-01-17T08:07:14.536Z,8.00
2023-01-17T08:10:19.964Z,5.97
2023-01-17T08:13:22.512Z,5.90
2023-01-17T08:16:25.758Z,4.90
2023-01-17T08:19:28.111Z,4.68
2023-01-17T08:22:31.107Z,4.68
2023-01-17T08:25:35.382Z,3.77
2023-01-17T08:28:38.149Z,3.45
2023-01-17T08:31:40.668Z,5.15
2023-01-17T08:34:43.350Z,6.45
2023-01-17T08:37:46.340Z,3.95
2023-01-17T08:40:49.142Z,3.53
2023-01-17T08:43:52.126Z,4.60
2023-01-17T08:46:54.760Z,5.07
2023-01-17T08:49:59.644Z,2.97
2023-01-17T08:53:02.307Z,4.32
2023-01-17T08:56:05.798Z,5.43
2023-01-17T08:59:11.895Z,4.75
2023-01-17T09:02:15.791Z,5.50
2023-01-17T09:05:18.451Z,4.60
2023-01-17T09:08:20.927Z,4.93
2023-01-17T09:11:23.583Z,6.83
2023-01-17T09:14:25.971Z,3.90
2023-01-17T09:17:29.085Z,4.43
2023-01-17T09:20:31.697Z,3.30
2023-01-17T09:23:34.301Z,3.58
2023-01-17T09:26:36.683Z,4.27
2023-01-17T09:29:39.315Z,4.50
2023-01-17T09:32:41.759Z,3.60
2023-01-17T09:35:45.084Z,4.18
2023-01-17T09:38:47.987Z,4.20
2023-01-17T09:42:26.156Z,5.73
2023-01-17T09:45:31.982Z,4.28
2023-01-17T09:48:38.789Z,4.97
2023-01-17T09:51:42.448Z,7.75
2023-01-17T09:54:48.089Z,4.03
2023-01-17T09:58:10.137Z,3.60
2023-01-17T10:01:31.676Z,4.87
2023-01-17T10:04:58.616Z,5.15
2023-01-17T10:08:16.661Z,5.00
2023-01-17T10:11:40.147Z,4.32
2023-01-17T10:15:03.174Z,4.10
2023-01-17T10:18:30.377Z,6.45
2023-01-17T10:22:02.345Z,4.68
2023-01-17T10:25:23.224Z,5.45
2023-01-17T10:28:33.565Z,4.55
2023-01-17T10:31:51.204Z,5.97
2023-01-17T10:34:53.697Z,5.10
2023-01-17T10:37:58.521Z,4.60
2023-01-17T10:41:21.970Z,5.78
2023-01-17T10:44:35.437Z,4.97
2023-01-17T10:47:39.504Z,4.03
2023-01-17T10:51:04.945Z,4.72
2023-01-17T10:54:24.218Z,3.62
2023-01-17T10:57:28.195Z,4.80
2023-01-17T11:00:52.393Z,4.60
2023-01-17T11:03:55.423Z,5.23
2023-01-17T11:07:24.725Z,6.62
2023-01-17T11:10:48.968Z,3.65
2023-01-17T11:13:53.332Z,3.72
2023-01-17T11:17:04.612Z,4.57
2023-01-17T11:20:35.257Z,5.33
2023-01-17T11:23:41.228Z,5.18
2023-01-17T11:26:49.573Z,8.98
2023-01-17T11:30:07.642Z,5.07
2023-01-17T11:33:45.348Z,3.97
2023-01-17T11:36:50.055Z,3.80
2023-01-17T11:40:08.134Z,7.68
2023-01-17T11:43:18.724Z,5.30
2023-01-17T11:46:21.882Z,4.85
2023-01-17T11:49:25.553Z,4.30
2023-01-17T11:52:37.587Z,6.30
2023-01-17T11:55:40.843Z,4.53
2023-01-17T11:58:45.899Z,4.22
2023-01-17T12:02:01.199Z,6.87
2023-01-17T12:05:15.370Z,5.57
2023-01-17T12:08:20.810Z,6.33
2023-01-17T12:12:07.285Z,4.53
2023-01-17T12:15:21.393Z,4.28
2023-01-17T12:18:33.562Z,5.15
2023-01-17T12:21:46.630Z,4.53
2023-01-17T12:24:52.305Z,4.27
2023-01-17T12:28:06.493Z,5.50
2023-01-17T12:31:44.687Z,4.22
2023-01-17T12:34:57.308Z,4.30
2023-01-17T12:38:11.398Z,7.28
2023-01-17T12:41:30.416Z,6.33
2023-01-17T12:45:07.561Z,6.85
2023-01-17T12:48:16.691Z,5.35
2023-01-17T12:51:29.032Z,6.72
2023-01-17T12:54:39.797Z,6.05
2023-01-17T12:57:47.797Z,5.13
2023-01-17T13:00:59.711Z,5.40
2023-01-17T13:04:09.056Z,5.05
2023-01-17T13:07:33.067Z,5.87
2023-01-17T13:10:58.773Z,5.82
2023-01-17T13:14:02.361Z,5.07
2023-01-17T13:17:22.543Z,6.57
2023-01-17T13:20:58.304Z,8.38
2023-01-17T13:24:03.900Z,5.05
2023-01-17T13:27:12.684Z,7.18
2023-01-17T13:30:34.605Z,6.17
2023-01-17T13:33:47.800Z,5.95
2023-01-17T13:37:00.727Z,6.53
2023-01-17T13:40:05.710Z,8.65
2023-01-17T13:43:22.193Z,7.90
2023-01-17T13:46:24.569Z,8.53
2023-01-17T13:49:34.693Z,6.45
2023-01-17T13:52:38.255Z,7.82
2023-01-17T13:55:46.827Z,6.05
2023-01-17T13:58:54.540Z,9.27
2023-01-17T14:01:57.720Z,8.27
2023-01-17T14:05:32.097Z,6.80
2023-01-17T14:08:38.770Z,6.53
2023-01-17T14:12:09.115Z,7.53
2023-01-17T14:15:23.008Z,5.60
2023-01-17T14:18:38.129Z,11.33
2023-01-17T14:21:40.673Z,7.35
2023-01-17T14:25:00.990Z,6.43
2023-01-17T14:28:19.031Z,11.48
2023-01-17T14:31:24.300Z,6.40
2023-01-17T14:34:26.836Z,6.50
2023-01-17T14:37:46.568Z,7.53
2023-01-17T14:41:02.726Z,8.55
2023-01-17T14:44:05.402Z,7.43
2023-01-17T14:47:13.895Z,9.00
2023-01-17T14:50:23.677Z,10.33
2023-01-17T14:53:31.687Z,10.05
2023-01-17T14:56:34.472Z,12.13
2023-01-17T14:59:36.798Z,6.20
2023-01-17T15:02:44.179Z,9.93
2023-01-17T15:05:51.033Z,7.70
2023-01-17T15:08:54.268Z,7.30
2023-01-17T15:11:58.097Z,11.38
2023-01-17T15:15:01.666Z,8.02
2023-01-17T15:18:27.590Z,9.25
2023-01-17T15:21:35.494Z,7.67
2023-01-17T15:24:43.481Z,8.73
2023-01-17T15:27:46.072Z,9.63
2023-01-17T15:31:03.752Z,8.27
2023-01-17T15:34:14.123Z,8.45
2023-01-17T15:37:40.663Z,10.93
2023-01-17T15:40:43.719Z,8.57
2023-01-17T15:43:46.403Z,10.18
2023-01-17T15:46:49.130Z,9.25
2023-01-17T15:49:52.198Z,10.40
2023-01-17T15:53:06.034Z,8.70
2023-01-17T15:56:31.940Z,10.38
2023-01-17T15:59:50.471Z,9.35
2023-01-17T16:02:59.038Z,9.02
2023-01-17T16:06:03.046Z,9.88
2023-01-17T16:09:22.355Z,9.57
2023-01-17T16:12:25.056Z,9.65
2023-01-17T16:15:28.877Z,9.52
2023-01-17T16:18:31.673Z,8.35
2023-01-17T16:21:34.125Z,8.38
2023-01-17T16:24:37.238Z,8.80
2023-01-17T16:27:41.504Z,10.07
2023-01-17T16:30:45.177Z,9.38
2023-01-17T16:33:49.473Z,10.88
2023-01-17T16:36:54.444Z,9.45
2023-01-17T16:39:57.117Z,12.50
2023-01-17T16:43:01.114Z,7.85
2023-01-17T16:46:03.628Z,11.18
2023-01-17T16:49:06.439Z,9.85
2023-01-17T16:52:08.902Z,10.02
2023-01-17T16:55:15.031Z,7.63
2023-01-17T16:58:20.440Z,9.77
2023-01-17T17:01:23.683Z,7.43
2023-01-17T17:04:26.127Z,8.68
2023-01-17T17:07:28.831Z,8.70
2023-01-17T17:10:31.552Z,7.03
2023-01-17T17:13:36.031Z,8.30
2023-01-17T17:16:39.140Z,10.68
2023-01-17T17:19:41.855Z,14.57
2023-01-17T17:22:50.294Z,9.32
2023-01-17T17:25:56.894Z,8.33
2023-01-17T17:28:59.335Z,9.32
2023-01-17T17:32:02.111Z,9.35
2023-01-17T17:35:05.223Z,9.10
2023-01-17T17:38:08.010Z,10.82
2023-01-17T17:41:10.377Z,7.17
2023-01-17T17:44:13.238Z,9.48
2023-01-17T17:47:16.175Z,8.85
2023-01-17T17:50:18.969Z,9.63
2023-01-17T17:53:21.791Z,8.88
2023-01-17T17:56:24.582Z,7.87
2023-01-17T17:59:27.015Z,8.98
2023-01-17T18:02:31.619Z,11.20
2023-01-17T18:05:34.392Z,10.63
2023-01-17T18:08:38.487Z,9.82
2023-01-17T18:11:43.342Z,9.63
2023-01-17T18:14:45.714Z,11.18
2023-01-17T18:17:52.496Z,14.23
2023-01-17T18:20:55.048Z,13.98
2023-01-17T18:24:00.308Z,12.75
2023-01-17T18:27:02.857Z,13.30
2023-01-17T18:30:06.150Z,11.60
2023-01-17T18:33:09.852Z,9.73
2023-01-17T18:36:13.353Z,10.30
2023-01-17T18:39:27.291Z,9.90
2023-01-17T18:42:31.152Z,9.73
2023-01-17T18:45:33.517Z,9.27
2023-01-17T18:48:37.182Z,9.70
2023-01-17T18:51:39.571Z,10.95
2023-01-17T18:54:42.276Z,11.20
2023-01-17T18:57:44.710Z,10.57
2023-01-17T19:00:50.330Z,11.45
2023-01-17T19:03:56.386Z,10.85
2023-01-17T19:06:59.014Z,10.10
2023-01-17T19:10:02.130Z,11.55
2023-01-17T19:13:04.855Z,10.70
2023-01-17T19:16:09.709Z,10.93
2023-01-17T19:19:14.812Z,8.68
2023-01-17T19:22:17.752Z,11.10
2023-01-17T19:25:21.192Z,10.00
2023-01-17T19:28:23.781Z,9.43
2023-01-17T19:31:28.562Z,8.63
2023-01-17T19:34:31.325Z,8.80
2023-01-17T19:37:34.318Z,8.90
2023-01-17T19:40:36.895Z,9.68
2023-01-17T19:43:39.881Z,6.63
2023-01-17T19:46:42.418Z,7.28
2023-01-17T19:49:45.695Z,6.53
2023-01-17T19:52:48.178Z,7.50
2023-01-17T19:55:51.089Z,6.97
2023-01-17T19:58:54.042Z,5.77
2023-01-17T20:01:59.446Z,4.80
2023-01-17T20:05:02.545Z,9.95
2023-01-17T20:08:05.026Z,5.25
2023-01-17T20:11:10.896Z,5.85
2023-01-17T20:14:14.993Z,4.07
2023-01-17T20:17:17.841Z,5.07
2023-01-17T20:20:22.806Z,5.28
2023-01-17T20:23:25.597Z,4.40
2023-01-17T20:26:36.769Z,5.12
2023-01-17T20:29:40.766Z,4.40
2023-01-17T20:32:43.110Z,5.57
2023-01-17T20:35:46.260Z,4.47
2023-01-17T20:38:49.097Z,7.18
2023-01-17T20:41:52.110Z,4.25
2023-01-17T20:44:54.480Z,5.93
2023-01-17T20:47:57.477Z,4.28
2023-01-17T20:51:10.561Z,4.90
2023-01-17T20:54:17.852Z,4.00
2023-01-17T20:57:20.281Z,6.03
2023-01-17T21:00:22.978Z,5.03
2023-01-17T21:03:29.615Z,4.65
2023-01-17T21:06:32.290Z,6.40
2023-01-17T21:09:34.713Z,5.07
2023-01-17T21:12:37.521Z,4.82
2023-01-17T21:15:48.099Z,4.97
2023-01-17T21:18:52.326Z,5.35
2023-01-17T21:21:56.271Z,5.37
2023-01-17T21:25:00.309Z,6.47
2023-01-17T21:28:05.915Z,6.75
2023-01-17T21:31:20.451Z,4.93
2023-01-17T21:34:25.459Z,5.32
2023-01-17T21:37:28.297Z,5.87
2023-01-17T21:40:31.233Z,5.12
2023-01-17T21:43:34.418Z,4.47
2023-01-17T21:46:39.218Z,4.67
2023-01-17T21:49:41.930Z,3.72
2023-01-17T21:52:46.517Z,5.32
2023-01-17T21:56:08.825Z,5.53
2023-01-17T21:59:11.178Z,3.85
2023-01-17T22:02:13.851Z,4.10
2023-01-17T22:05:18.028Z,4.03
2023-01-17T22:08:20.669Z,4.40
2023-01-17T22:11:25.890Z,5.12
2023-01-17T22:14:28.234Z,5.20
2023-01-17T22:17:30.982Z,4.03
2023-01-17T22:20:34.210Z,5.55
2023-01-17T22:23:36.848Z,4.97
2023-01-17T22:26:41.808Z,6.90
2023-01-17T22:29:44.575Z,5.43
2023-01-17T22:32:46.999Z,4.77
2023-01-17T22:35:57.791Z,4.57
2023-01-17T22:39:00.904Z,4.70
2023-01-17T22:42:03.682Z,4.37
2023-01-17T22:45:07.835Z,6.03
2023-01-17T22:48:10.650Z,5.07
2023-01-17T22:51:15.374Z,6.12
2023-01-17T22:54:19.421Z,5.15
2023-01-17T22:57:23.242Z,6.15
2023-01-17T23:00:25.945Z,4.53
2023-01-17T23:03:28.400Z,5.50
2023-01-17T23:06:36.986Z,5.93
2023-01-17T23:09:39.261Z,5.37
2023-01-17T23:12:41.995Z,4.90
2023-01-17T23:16:02.962Z,5.32
2023-01-17T23:19:23.911Z,4.83
2023-01-17T23:22:29.125Z,5.12
2023-01-17T23:25:31.702Z,4.20
2023-01-17T23:28:34.211Z,4.60
2023-01-17T23:31:36.864Z,4.78
2023-01-17T23:34:39.214Z,4.83
2023-01-17T23:38:00.684Z,5.32
2023-01-17T23:41:24.727Z,4.40
2023-01-17T23:44:31.682Z,4.60
2023-01-17T23:47:34.119Z,4.60
2023-01-17T23:50:41.760Z,4.70
2023-01-17T23:53:44.049Z,5.78
2023-01-17T23:56:46.684Z,4.62
2023-01-17T23:59:49.033Z,5.70
